sensor_id;sensor_type;location;lat;lon;timestamp;P1;durP1;ratioP1;P2;durP2;ratioP2
59486;SDS011;45298;54.918;73.504;2022-08-19T00:00:10;19.35;;;9.18;;
59486;SDS011;45298;54.918;73.504;2022-08-19T00:02:42;3.95;;;1.40;;
59486;SDS011;45298;54.918;73.504;2022-08-19T00:05:16;2.67;;;1.30;;
59486;SDS011;45298;54.918;73.504;2022-08-19T00:07:46;3.40;;;1.30;;
59486;SDS011;45298;54.918;73.504;2022-08-19T00:10:16;5.60;;;2.58;;
59486;SDS011;45298;54.918;73.504;2022-08-19T00:12:47;17.77;;;9.88;;
59486;SDS011;45298;54.918;73.504;2022-08-19T00:15:16;18.88;;;10.65;;
59486;SDS011;45298;54.918;73.504;2022-08-19T00:17:48;3.13;;;1.40;;
59486;SDS011;45298;54.918;73.504;2022-08-19T00:20:18;3.78;;;1.33;;
59486;SDS011;45298;54.918;73.504;2022-08-19T00:22:48;14.13;;;8.23;;
59486;SDS011;45298;54.918;73.504;2022-08-19T00:25:17;2.60;;;1.30;;
59486;SDS011;45298;54.918;73.504;2022-08-19T00:27:56;3.22;;;1.30;;
59486;SDS011;45298;54.918;73.504;2022-08-19T00:30:27;7.50;;;2.92;;
59486;SDS011;45298;54.918;73.504;2022-08-19T00:32:56;4.90;;;1.83;;
59486;SDS011;45298;54.918;73.504;2022-08-19T00:35:26;2.58;;;1.48;;
59486;SDS011;45298;54.918;73.504;2022-08-19T00:37:55;3.00;;;1.30;;
59486;SDS011;45298;54.918;73.504;2022-08-19T00:40:23;4.32;;;1.40;;
59486;SDS011;45298;54.918;73.504;2022-08-19T00:42:53;11.80;;;5.72;;
59486;SDS011;45298;54.918;73.504;2022-08-19T00:45:23;3.58;;;2.10;;
59486;SDS011;45298;54.918;73.504;2022-08-19T00:47:54;2.47;;;1.23;;
59486;SDS011;45298;54.918;73.504;2022-08-19T00:50:22;10.10;;;5.88;;
59486;SDS011;45298;54.918;73.504;2022-08-19T00:52:52;6.22;;;2.67;;
59486;SDS011;45298;54.918;73.504;2022-08-19T00:55:22;7.30;;;4.20;;
59486;SDS011;45298;54.918;73.504;2022-08-19T00:57:53;16.73;;;11.30;;
59486;SDS011;45298;54.918;73.504;2022-08-19T01:00:26;19.67;;;12.63;;
59486;SDS011;45298;54.918;73.504;2022-08-19T01:02:56;10.02;;;6.72;;
59486;SDS011;45298;54.918;73.504;2022-08-19T01:05:26;7.43;;;3.17;;
59486;SDS011;45298;54.918;73.504;2022-08-19T01:07:57;10.70;;;6.68;;
59486;SDS011;45298;54.918;73.504;2022-08-19T01:10:30;8.52;;;3.22;;
59486;SDS011;45298;54.918;73.504;2022-08-19T01:13:05;7.78;;;4.97;;
59486;SDS011;45298;54.918;73.504;2022-08-19T01:15:35;4.43;;;2.10;;
59486;SDS011;45298;54.918;73.504;2022-08-19T01:18:11;5.38;;;2.30;;
59486;SDS011;45298;54.918;73.504;2022-08-19T01:20:43;6.63;;;1.92;;
59486;SDS011;45298;54.918;73.504;2022-08-19T01:23:12;2.13;;;1.25;;
59486;SDS011;45298;54.918;73.504;2022-08-19T01:25:47;10.38;;;1.65;;
59486;SDS011;45298;54.918;73.504;2022-08-19T01:28:19;9.57;;;1.55;;
59486;SDS011;45298;54.918;73.504;2022-08-19T01:31:07;2.97;;;1.20;;
59486;SDS011;45298;54.918;73.504;2022-08-19T01:33:55;2.95;;;1.65;;
59486;SDS011;45298;54.918;73.504;2022-08-19T01:36:33;5.53;;;1.88;;
59486;SDS011;45298;54.918;73.504;2022-08-19T01:39:07;27.10;;;15.38;;
59486;SDS011;45298;54.918;73.504;2022-08-19T01:41:38;4.82;;;1.60;;
59486;SDS011;45298;54.918;73.504;2022-08-19T01:44:08;6.72;;;1.45;;
59486;SDS011;45298;54.918;73.504;2022-08-19T01:46:46;6.50;;;1.55;;
59486;SDS011;45298;54.918;73.504;2022-08-19T01:49:17;2.20;;;1.27;;
59486;SDS011;45298;54.918;73.504;2022-08-19T01:51:48;9.25;;;3.22;;
59486;SDS011;45298;54.918;73.504;2022-08-19T01:54:18;4.95;;;1.50;;
59486;SDS011;45298;54.918;73.504;2022-08-19T01:57:04;14.82;;;4.47;;
59486;SDS011;45298;54.918;73.504;2022-08-19T01:59:39;4.43;;;1.48;;
59486;SDS011;45298;54.918;73.504;2022-08-19T02:02:11;4.30;;;1.30;;
59486;SDS011;45298;54.918;73.504;2022-08-19T02:04:40;7.07;;;2.55;;
59486;SDS011;45298;54.918;73.504;2022-08-19T02:07:08;17.90;;;8.63;;
59486;SDS011;45298;54.918;73.504;2022-08-19T02:09:37;5.50;;;2.83;;
59486;SDS011;45298;54.918;73.504;2022-08-19T02:12:06;7.82;;;1.38;;
59486;SDS011;45298;54.918;73.504;2022-08-19T02:14:36;3.67;;;1.27;;
59486;SDS011;45298;54.918;73.504;2022-08-19T02:17:05;3.70;;;1.60;;
59486;SDS011;45298;54.918;73.504;2022-08-19T02:19:34;3.05;;;1.83;;
59486;SDS011;45298;54.918;73.504;2022-08-19T02:22:05;4.75;;;1.35;;
59486;SDS011;45298;54.918;73.504;2022-08-19T02:24:35;4.57;;;1.40;;
59486;SDS011;45298;54.918;73.504;2022-08-19T02:27:04;2.53;;;1.02;;
59486;SDS011;45298;54.918;73.504;2022-08-19T02:29:33;2.15;;;1.40;;
59486;SDS011;45298;54.918;73.504;2022-08-19T02:32:02;3.92;;;1.10;;
59486;SDS011;45298;54.918;73.504;2022-08-19T02:34:32;5.60;;;2.08;;
59486;SDS011;45298;54.918;73.504;2022-08-19T02:37:01;6.13;;;2.47;;
59486;SDS011;45298;54.918;73.504;2022-08-19T02:39:30;2.20;;;1.40;;
59486;SDS011;45298;54.918;73.504;2022-08-19T02:41:59;4.57;;;1.17;;
59486;SDS011;45298;54.918;73.504;2022-08-19T02:44:28;5.63;;;1.20;;
59486;SDS011;45298;54.918;73.504;2022-08-19T02:46:58;3.95;;;1.00;;
59486;SDS011;45298;54.918;73.504;2022-08-19T02:49:26;7.93;;;1.35;;
59486;SDS011;45298;54.918;73.504;2022-08-19T02:52:00;4.57;;;1.70;;
59486;SDS011;45298;54.918;73.504;2022-08-19T02:54:30;4.55;;;1.30;;
59486;SDS011;45298;54.918;73.504;2022-08-19T02:56:59;5.47;;;1.85;;
59486;SDS011;45298;54.918;73.504;2022-08-19T02:59:29;4.43;;;1.40;;
59486;SDS011;45298;54.918;73.504;2022-08-19T03:01:59;6.70;;;2.30;;
59486;SDS011;45298;54.918;73.504;2022-08-19T03:04:28;8.32;;;2.50;;
59486;SDS011;45298;54.918;73.504;2022-08-19T03:06:57;6.93;;;3.20;;
59486;SDS011;45298;54.918;73.504;2022-08-19T03:09:37;3.40;;;1.50;;
59486;SDS011;45298;54.918;73.504;2022-08-19T03:12:05;17.73;;;7.40;;
59486;SDS011;45298;54.918;73.504;2022-08-19T03:14:35;4.07;;;2.35;;
59486;SDS011;45298;54.918;73.504;2022-08-19T03:17:04;7.60;;;2.70;;
59486;SDS011;45298;54.918;73.504;2022-08-19T03:19:34;7.78;;;1.55;;
59486;SDS011;45298;54.918;73.504;2022-08-19T03:22:03;4.50;;;2.03;;
59486;SDS011;45298;54.918;73.504;2022-08-19T03:24:32;4.28;;;1.75;;
59486;SDS011;45298;54.918;73.504;2022-08-19T03:27:01;3.33;;;1.33;;
59486;SDS011;45298;54.918;73.504;2022-08-19T03:29:32;8.90;;;2.10;;
59486;SDS011;45298;54.918;73.504;2022-08-19T03:32:11;3.25;;;1.50;;
59486;SDS011;45298;54.918;73.504;2022-08-19T03:34:58;9.75;;;1.70;;
59486;SDS011;45298;54.918;73.504;2022-08-19T03:37:27;6.43;;;1.80;;
59486;SDS011;45298;54.918;73.504;2022-08-19T03:39:56;3.53;;;1.30;;
59486;SDS011;45298;54.918;73.504;2022-08-19T03:42:25;2.28;;;1.10;;
59486;SDS011;45298;54.918;73.504;2022-08-19T03:45:11;4.03;;;1.25;;
59486;SDS011;45298;54.918;73.504;2022-08-19T03:47:40;12.07;;;1.63;;
59486;SDS011;45298;54.918;73.504;2022-08-19T03:50:09;4.07;;;1.25;;
59486;SDS011;45298;54.918;73.504;2022-08-19T03:52:38;5.22;;;1.33;;
59486;SDS011;45298;54.918;73.504;2022-08-19T03:57:41;8.30;;;1.40;;
59486;SDS011;45298;54.918;73.504;2022-08-19T04:00:10;5.70;;;1.48;;
59486;SDS011;45298;54.918;73.504;2022-08-19T04:02:41;3.60;;;1.35;;
59486;SDS011;45298;54.918;73.504;2022-08-19T04:05:27;8.00;;;1.75;;
59486;SDS011;45298;54.918;73.504;2022-08-19T04:07:56;7.97;;;2.22;;
59486;SDS011;45298;54.918;73.504;2022-08-19T04:10:27;4.38;;;1.90;;
59486;SDS011;45298;54.918;73.504;2022-08-19T04:12:56;4.72;;;1.95;;
59486;SDS011;45298;54.918;73.504;2022-08-19T04:15:24;5.53;;;2.10;;
59486;SDS011;45298;54.918;73.504;2022-08-19T04:17:53;6.05;;;2.33;;
59486;SDS011;45298;54.918;73.504;2022-08-19T04:20:22;3.78;;;2.05;;
59486;SDS011;45298;54.918;73.504;2022-08-19T04:22:51;5.85;;;1.90;;
59486;SDS011;45298;54.918;73.504;2022-08-19T04:25:20;5.45;;;1.60;;
59486;SDS011;45298;54.918;73.504;2022-08-19T04:27:48;5.97;;;3.05;;
59486;SDS011;45298;54.918;73.504;2022-08-19T04:30:17;9.82;;;2.85;;
59486;SDS011;45298;54.918;73.504;2022-08-19T04:32:46;8.35;;;3.85;;
59486;SDS011;45298;54.918;73.504;2022-08-19T04:35:15;4.60;;;2.03;;
59486;SDS011;45298;54.918;73.504;2022-08-19T04:37:49;6.68;;;2.22;;
59486;SDS011;45298;54.918;73.504;2022-08-19T04:40:17;4.70;;;2.10;;
59486;SDS011;45298;54.918;73.504;2022-08-19T04:43:04;14.00;;;2.75;;
59486;SDS011;45298;54.918;73.504;2022-08-19T04:45:33;6.47;;;2.80;;
59486;SDS011;45298;54.918;73.504;2022-08-19T04:48:10;6.97;;;2.45;;
59486;SDS011;45298;54.918;73.504;2022-08-19T04:50:54;7.00;;;3.00;;
59486;SDS011;45298;54.918;73.504;2022-08-19T04:53:28;9.68;;;5.82;;
59486;SDS011;45298;54.918;73.504;2022-08-19T04:56:06;18.88;;;8.85;;
59486;SDS011;45298;54.918;73.504;2022-08-19T04:58:37;15.25;;;3.90;;
59486;SDS011;45298;54.918;73.504;2022-08-19T05:01:14;9.00;;;2.40;;
59486;SDS011;45298;54.918;73.504;2022-08-19T05:03:46;7.55;;;3.20;;
59486;SDS011;45298;54.918;73.504;2022-08-19T05:06:16;9.85;;;3.78;;
59486;SDS011;45298;54.918;73.504;2022-08-19T05:08:47;13.30;;;6.53;;
59486;SDS011;45298;54.918;73.504;2022-08-19T05:11:21;10.73;;;2.95;;
59486;SDS011;45298;54.918;73.504;2022-08-19T05:13:52;7.63;;;3.22;;
59486;SDS011;45298;54.918;73.504;2022-08-19T05:16:23;8.30;;;3.25;;
59486;SDS011;45298;54.918;73.504;2022-08-19T05:18:53;8.88;;;2.70;;
59486;SDS011;45298;54.918;73.504;2022-08-19T05:21:42;14.70;;;5.80;;
59486;SDS011;45298;54.918;73.504;2022-08-19T05:24:29;8.60;;;3.03;;
59486;SDS011;45298;54.918;73.504;2022-08-19T05:27:02;9.40;;;2.28;;
59486;SDS011;45298;54.918;73.504;2022-08-19T05:29:33;8.75;;;2.20;;
59486;SDS011;45298;54.918;73.504;2022-08-19T05:32:03;4.70;;;1.80;;
59486;SDS011;45298;54.918;73.504;2022-08-19T05:34:35;9.32;;;2.15;;
59486;SDS011;45298;54.918;73.504;2022-08-19T05:37:06;8.70;;;2.45;;
59486;SDS011;45298;54.918;73.504;2022-08-19T05:39:36;5.45;;;2.40;;
59486;SDS011;45298;54.918;73.504;2022-08-19T05:42:07;9.65;;;3.38;;
59486;SDS011;45298;54.918;73.504;2022-08-19T05:44:39;21.48;;;9.38;;
59486;SDS011;45298;54.918;73.504;2022-08-19T05:47:13;7.30;;;2.35;;
59486;SDS011;45298;54.918;73.504;2022-08-19T05:49:42;7.07;;;2.60;;
59486;SDS011;45298;54.918;73.504;2022-08-19T05:52:13;4.88;;;1.60;;
59486;SDS011;45298;54.918;73.504;2022-08-19T05:54:45;5.40;;;2.00;;
59486;SDS011;45298;54.918;73.504;2022-08-19T05:57:18;11.90;;;4.63;;
59486;SDS011;45298;54.918;73.504;2022-08-19T05:59:47;11.73;;;3.88;;
59486;SDS011;45298;54.918;73.504;2022-08-19T06:02:28;4.68;;;1.60;;
59486;SDS011;45298;54.918;73.504;2022-08-19T06:05:02;8.45;;;2.88;;
59486;SDS011;45298;54.918;73.504;2022-08-19T06:07:31;7.90;;;2.88;;
59486;SDS011;45298;54.918;73.504;2022-08-19T06:10:03;10.27;;;3.00;;
59486;SDS011;45298;54.918;73.504;2022-08-19T06:12:34;3.95;;;2.13;;
59486;SDS011;45298;54.918;73.504;2022-08-19T06:15:08;7.00;;;2.10;;
59486;SDS011;45298;54.918;73.504;2022-08-19T06:17:38;7.35;;;2.05;;
59486;SDS011;45298;54.918;73.504;2022-08-19T06:20:12;3.45;;;1.77;;
59486;SDS011;45298;54.918;73.504;2022-08-19T06:22:46;3.33;;;1.30;;
59486;SDS011;45298;54.918;73.504;2022-08-19T06:25:19;4.10;;;1.30;;
59486;SDS011;45298;54.918;73.504;2022-08-19T06:27:48;6.22;;;1.27;;
59486;SDS011;45298;54.918;73.504;2022-08-19T06:30:37;11.15;;;2.13;;
59486;SDS011;45298;54.918;73.504;2022-08-19T06:33:06;3.33;;;1.23;;
59486;SDS011;45298;54.918;73.504;2022-08-19T06:35:38;7.78;;;1.52;;
59486;SDS011;45298;54.918;73.504;2022-08-19T06:38:08;4.30;;;1.85;;
59486;SDS011;45298;54.918;73.504;2022-08-19T06:40:40;3.45;;;1.90;;
59486;SDS011;45298;54.918;73.504;2022-08-19T06:43:13;5.93;;;1.58;;
59486;SDS011;45298;54.918;73.504;2022-08-19T06:45:44;3.42;;;1.52;;
59486;SDS011;45298;54.918;73.504;2022-08-19T06:48:14;4.82;;;1.42;;
59486;SDS011;45298;54.918;73.504;2022-08-19T06:50:44;6.22;;;2.10;;
59486;SDS011;45298;54.918;73.504;2022-08-19T06:53:12;8.95;;;1.90;;
59486;SDS011;45298;54.918;73.504;2022-08-19T06:55:41;6.13;;;2.10;;
59486;SDS011;45298;54.918;73.504;2022-08-19T06:58:10;7.95;;;2.13;;
59486;SDS011;45298;54.918;73.504;2022-08-19T07:00:39;9.95;;;2.40;;
59486;SDS011;45298;54.918;73.504;2022-08-19T07:03:08;8.85;;;2.00;;
59486;SDS011;45298;54.918;73.504;2022-08-19T07:05:40;7.15;;;2.40;;
59486;SDS011;45298;54.918;73.504;2022-08-19T07:08:12;7.75;;;3.80;;
59486;SDS011;45298;54.918;73.504;2022-08-19T07:10:43;7.47;;;2.88;;
59486;SDS011;45298;54.918;73.504;2022-08-19T07:13:12;5.25;;;2.25;;
59486;SDS011;45298;54.918;73.504;2022-08-19T07:15:41;4.95;;;2.20;;
59486;SDS011;45298;54.918;73.504;2022-08-19T07:18:10;7.75;;;1.58;;
59486;SDS011;45298;54.918;73.504;2022-08-19T07:20:39;7.55;;;1.88;;
59486;SDS011;45298;54.918;73.504;2022-08-19T07:23:08;9.57;;;1.88;;
59486;SDS011;45298;54.918;73.504;2022-08-19T07:25:42;5.50;;;1.85;;
59486;SDS011;45298;54.918;73.504;2022-08-19T07:28:19;4.32;;;1.90;;
59486;SDS011;45298;54.918;73.504;2022-08-19T07:30:51;10.43;;;2.00;;
59486;SDS011;45298;54.918;73.504;2022-08-19T07:33:21;5.80;;;2.97;;
59486;SDS011;45298;54.918;73.504;2022-08-19T07:35:54;11.05;;;2.95;;
59486;SDS011;45298;54.918;73.504;2022-08-19T07:38:23;7.97;;;2.70;;
59486;SDS011;45298;54.918;73.504;2022-08-19T07:40:53;6.97;;;1.70;;
59486;SDS011;45298;54.918;73.504;2022-08-19T07:43:21;9.13;;;2.30;;
59486;SDS011;45298;54.918;73.504;2022-08-19T07:46:01;7.07;;;2.30;;
59486;SDS011;45298;54.918;73.504;2022-08-19T07:48:30;6.15;;;2.10;;
59486;SDS011;45298;54.918;73.504;2022-08-19T07:51:00;10.95;;;3.03;;
59486;SDS011;45298;54.918;73.504;2022-08-19T07:53:31;4.95;;;2.33;;
59486;SDS011;45298;54.918;73.504;2022-08-19T07:56:06;6.05;;;2.20;;
59486;SDS011;45298;54.918;73.504;2022-08-19T07:58:37;8.45;;;2.70;;
59486;SDS011;45298;54.918;73.504;2022-08-19T08:01:08;14.15;;;3.30;;
59486;SDS011;45298;54.918;73.504;2022-08-19T08:03:40;11.73;;;2.47;;
59486;SDS011;45298;54.918;73.504;2022-08-19T08:06:26;6.07;;;2.08;;
59486;SDS011;45298;54.918;73.504;2022-08-19T08:09:15;5.43;;;2.60;;
59486;SDS011;45298;54.918;73.504;2022-08-19T08:11:58;5.18;;;2.63;;
59486;SDS011;45298;54.918;73.504;2022-08-19T08:14:50;9.25;;;2.78;;
59486;SDS011;45298;54.918;73.504;2022-08-19T08:17:23;7.63;;;2.50;;
59486;SDS011;45298;54.918;73.504;2022-08-19T08:20:14;7.68;;;2.80;;
59486;SDS011;45298;54.918;73.504;2022-08-19T08:22:46;7.55;;;2.10;;
59486;SDS011;45298;54.918;73.504;2022-08-19T08:25:33;6.97;;;2.75;;
59486;SDS011;45298;54.918;73.504;2022-08-19T08:28:04;7.43;;;2.83;;
59486;SDS011;45298;54.918;73.504;2022-08-19T08:30:32;6.55;;;2.00;;
59486;SDS011;45298;54.918;73.504;2022-08-19T08:33:03;4.85;;;1.90;;
59486;SDS011;45298;54.918;73.504;2022-08-19T08:35:32;5.28;;;2.17;;
59486;SDS011;45298;54.918;73.504;2022-08-19T08:38:01;5.72;;;2.05;;
59486;SDS011;45298;54.918;73.504;2022-08-19T08:43:28;8.07;;;2.28;;
59486;SDS011;45298;54.918;73.504;2022-08-19T08:48:44;5.47;;;2.78;;
59486;SDS011;45298;54.918;73.504;2022-08-19T08:51:44;8.60;;;3.10;;
59486;SDS011;45298;54.918;73.504;2022-08-19T08:54:29;12.07;;;3.20;;
59486;SDS011;45298;54.918;73.504;2022-08-19T08:57:02;14.10;;;3.70;;
59486;SDS011;45298;54.918;73.504;2022-08-19T08:59:35;12.23;;;3.50;;
59486;SDS011;45298;54.918;73.504;2022-08-19T09:02:08;9.90;;;3.92;;
59486;SDS011;45298;54.918;73.504;2022-08-19T09:04:37;15.45;;;4.00;;
59486;SDS011;45298;54.918;73.504;2022-08-19T09:07:16;19.05;;;4.47;;
59486;SDS011;45298;54.918;73.504;2022-08-19T09:10:09;12.05;;;3.78;;
59486;SDS011;45298;54.918;73.504;2022-08-19T09:15:40;24.23;;;6.65;;
59486;SDS011;45298;54.918;73.504;2022-08-19T09:18:13;25.70;;;6.60;;
59486;SDS011;45298;54.918;73.504;2022-08-19T09:20:45;21.38;;;5.47;;
59486;SDS011;45298;54.918;73.504;2022-08-19T09:23:15;16.52;;;4.70;;
59486;SDS011;45298;54.918;73.504;2022-08-19T09:25:53;16.00;;;4.47;;
59486;SDS011;45298;54.918;73.504;2022-08-19T09:28:21;23.83;;;5.10;;
59486;SDS011;45298;54.918;73.504;2022-08-19T09:30:53;13.45;;;4.72;;
59486;SDS011;45298;54.918;73.504;2022-08-19T09:33:22;11.65;;;4.00;;
59486;SDS011;45298;54.918;73.504;2022-08-19T09:35:50;21.25;;;5.20;;
59486;SDS011;45298;54.918;73.504;2022-08-19T09:38:35;17.88;;;4.97;;
59486;SDS011;45298;54.918;73.504;2022-08-19T09:41:11;21.48;;;5.10;;
59486;SDS011;45298;54.918;73.504;2022-08-19T09:43:44;13.65;;;4.53;;
59486;SDS011;45298;54.918;73.504;2022-08-19T09:46:16;15.40;;;5.25;;
59486;SDS011;45298;54.918;73.504;2022-08-19T09:48:50;15.68;;;4.72;;
59486;SDS011;45298;54.918;73.504;2022-08-19T09:51:21;11.05;;;4.10;;
59486;SDS011;45298;54.918;73.504;2022-08-19T09:53:51;10.93;;;4.30;;
59486;SDS011;45298;54.918;73.504;2022-08-19T09:56:24;29.60;;;7.85;;
59486;SDS011;45298;54.918;73.504;2022-08-19T09:58:53;18.45;;;5.15;;
59486;SDS011;45298;54.918;73.504;2022-08-19T10:01:23;17.58;;;6.78;;
59486;SDS011;45298;54.918;73.504;2022-08-19T10:03:54;11.50;;;4.43;;
59486;SDS011;45298;54.918;73.504;2022-08-19T10:06:25;11.15;;;5.20;;
59486;SDS011;45298;54.918;73.504;2022-08-19T10:09:13;19.20;;;5.18;;
59486;SDS011;45298;54.918;73.504;2022-08-19T10:11:52;13.10;;;5.72;;
59486;SDS011;45298;54.918;73.504;2022-08-19T10:14:23;8.63;;;5.32;;
59486;SDS011;45298;54.918;73.504;2022-08-19T10:16:52;10.95;;;5.38;;
59486;SDS011;45298;54.918;73.504;2022-08-19T10:19:20;10.55;;;5.88;;
59486;SDS011;45298;54.918;73.504;2022-08-19T10:21:52;18.52;;;6.40;;
59486;SDS011;45298;54.918;73.504;2022-08-19T10:24:26;13.65;;;7.78;;
59486;SDS011;45298;54.918;73.504;2022-08-19T10:26:55;9.18;;;6.10;;
59486;SDS011;45298;54.918;73.504;2022-08-19T10:29:26;14.68;;;5.97;;
59486;SDS011;45298;54.918;73.504;2022-08-19T10:32:02;12.57;;;6.05;;
59486;SDS011;45298;54.918;73.504;2022-08-19T10:34:36;9.73;;;5.97;;
59486;SDS011;45298;54.918;73.504;2022-08-19T10:37:15;10.80;;;6.20;;
59486;SDS011;45298;54.918;73.504;2022-08-19T10:39:58;10.60;;;6.90;;
59486;SDS011;45298;54.918;73.504;2022-08-19T10:42:26;15.32;;;7.40;;
59486;SDS011;45298;54.918;73.504;2022-08-19T10:44:55;12.27;;;7.35;;
59486;SDS011;45298;54.918;73.504;2022-08-19T10:47:24;13.98;;;7.50;;
59486;SDS011;45298;54.918;73.504;2022-08-19T10:49:58;11.80;;;6.90;;
59486;SDS011;45298;54.918;73.504;2022-08-19T10:52:45;12.13;;;8.10;;
59486;SDS011;45298;54.918;73.504;2022-08-19T10:55:18;18.15;;;9.27;;
59486;SDS011;45298;54.918;73.504;2022-08-19T10:58:11;24.67;;;11.27;;
59486;SDS011;45298;54.918;73.504;2022-08-19T11:00:41;16.98;;;9.38;;
59486;SDS011;45298;54.918;73.504;2022-08-19T11:03:12;12.75;;;7.90;;
59486;SDS011;45298;54.918;73.504;2022-08-19T11:05:40;14.38;;;8.50;;
59486;SDS011;45298;54.918;73.504;2022-08-19T11:08:09;22.90;;;9.23;;
59486;SDS011;45298;54.918;73.504;2022-08-19T11:10:51;19.08;;;9.45;;
59486;SDS011;45298;54.918;73.504;2022-08-19T11:13:23;15.95;;;7.35;;
59486;SDS011;45298;54.918;73.504;2022-08-19T11:16:12;16.15;;;7.22;;
59486;SDS011;45298;54.918;73.504;2022-08-19T11:18:44;12.70;;;7.57;;
59486;SDS011;45298;54.918;73.504;2022-08-19T11:23:50;19.25;;;7.43;;
59486;SDS011;45298;54.918;73.504;2022-08-19T11:26:21;11.02;;;5.97;;
59486;SDS011;45298;54.918;73.504;2022-08-19T11:28:51;11.13;;;5.40;;
59486;SDS011;45298;54.918;73.504;2022-08-19T11:31:23;9.57;;;5.40;;
59486;SDS011;45298;54.918;73.504;2022-08-19T11:33:58;11.85;;;5.63;;
59486;SDS011;45298;54.918;73.504;2022-08-19T11:36:30;11.02;;;5.25;;
59486;SDS011;45298;54.918;73.504;2022-08-19T11:39:02;10.75;;;5.13;;
59486;SDS011;45298;54.918;73.504;2022-08-19T11:41:32;13.00;;;6.38;;
59486;SDS011;45298;54.918;73.504;2022-08-19T11:44:00;15.20;;;6.80;;
59486;SDS011;45298;54.918;73.504;2022-08-19T11:46:31;18.52;;;9.48;;
59486;SDS011;45298;54.918;73.504;2022-08-19T11:49:00;15.52;;;8.23;;
59486;SDS011;45298;54.918;73.504;2022-08-19T11:51:30;9.23;;;5.10;;
59486;SDS011;45298;54.918;73.504;2022-08-19T11:53:59;9.60;;;4.82;;
59486;SDS011;45298;54.918;73.504;2022-08-19T11:56:30;7.82;;;4.70;;
59486;SDS011;45298;54.918;73.504;2022-08-19T11:59:00;8.95;;;4.55;;
59486;SDS011;45298;54.918;73.504;2022-08-19T12:01:29;6.22;;;3.80;;
59486;SDS011;45298;54.918;73.504;2022-08-19T12:03:58;7.40;;;4.13;;
59486;SDS011;45298;54.918;73.504;2022-08-19T12:06:30;6.32;;;4.40;;
59486;SDS011;45298;54.918;73.504;2022-08-19T12:09:02;6.15;;;4.07;;
59486;SDS011;45298;54.918;73.504;2022-08-19T12:11:32;8.23;;;5.80;;
59486;SDS011;45298;54.918;73.504;2022-08-19T12:14:01;9.30;;;6.65;;
59486;SDS011;45298;54.918;73.504;2022-08-19T12:16:31;9.70;;;6.53;;
59486;SDS011;45298;54.918;73.504;2022-08-19T12:19:00;15.15;;;10.60;;
59486;SDS011;45298;54.918;73.504;2022-08-19T12:21:32;18.70;;;9.70;;
59486;SDS011;45298;54.918;73.504;2022-08-19T12:24:03;28.42;;;16.95;;
59486;SDS011;45298;54.918;73.504;2022-08-19T12:26:34;21.20;;;10.23;;
59486;SDS011;45298;54.918;73.504;2022-08-19T12:29:20;48.15;;;28.52;;
59486;SDS011;45298;54.918;73.504;2022-08-19T12:31:50;92.80;;;58.05;;
59486;SDS011;45298;54.918;73.504;2022-08-19T12:34:19;13.23;;;8.85;;
59486;SDS011;45298;54.918;73.504;2022-08-19T12:36:48;9.77;;;6.20;;
59486;SDS011;45298;54.918;73.504;2022-08-19T12:39:17;48.03;;;23.92;;
59486;SDS011;45298;54.918;73.504;2022-08-19T12:41:46;9.13;;;5.22;;
59486;SDS011;45298;54.918;73.504;2022-08-19T12:44:21;13.63;;;5.38;;
59486;SDS011;45298;54.918;73.504;2022-08-19T12:46:56;14.00;;;8.95;;
59486;SDS011;45298;54.918;73.504;2022-08-19T12:49:27;8.65;;;5.40;;
59486;SDS011;45298;54.918;73.504;2022-08-19T12:52:17;13.38;;;7.90;;
59486;SDS011;45298;54.918;73.504;2022-08-19T16:16:19;19.85;;;11.73;;
59486;SDS011;45298;54.918;73.504;2022-08-19T16:19:00;35.63;;;20.60;;
59486;SDS011;45298;54.918;73.504;2022-08-19T16:21:36;12.85;;;7.90;;
59486;SDS011;45298;54.918;73.504;2022-08-19T16:24:10;20.95;;;13.00;;
59486;SDS011;45298;54.918;73.504;2022-08-19T16:26:42;16.63;;;9.38;;
59486;SDS011;45298;54.918;73.504;2022-08-19T16:29:12;21.10;;;12.35;;
59486;SDS011;45298;54.918;73.504;2022-08-19T16:32:02;49.67;;;33.25;;
59486;SDS011;45298;54.918;73.504;2022-08-19T16:34:32;22.80;;;15.65;;
59486;SDS011;45298;54.918;73.504;2022-08-19T16:37:06;24.67;;;16.00;;
59486;SDS011;45298;54.918;73.504;2022-08-19T16:39:37;20.88;;;13.07;;
59486;SDS011;45298;54.918;73.504;2022-08-19T16:42:10;137.50;;;76.35;;
59486;SDS011;45298;54.918;73.504;2022-08-19T16:44:40;255.98;;;128.25;;
59486;SDS011;45298;54.918;73.504;2022-08-19T16:47:13;94.80;;;47.00;;
59486;SDS011;45298;54.918;73.504;2022-08-19T16:49:44;109.82;;;53.78;;
59486;SDS011;45298;54.918;73.504;2022-08-19T16:52:21;36.97;;;20.63;;
59486;SDS011;45298;54.918;73.504;2022-08-19T16:54:53;38.50;;;21.88;;
59486;SDS011;45298;54.918;73.504;2022-08-19T16:57:22;38.47;;;21.75;;
59486;SDS011;45298;54.918;73.504;2022-08-19T16:59:50;17.80;;;9.85;;
59486;SDS011;45298;54.918;73.504;2022-08-19T17:02:23;16.13;;;10.02;;
59486;SDS011;45298;54.918;73.504;2022-08-19T17:04:56;37.05;;;18.27;;
59486;SDS011;45298;54.918;73.504;2022-08-19T17:07:26;36.20;;;20.70;;
59486;SDS011;45298;54.918;73.504;2022-08-19T17:10:00;17.52;;;9.27;;
59486;SDS011;45298;54.918;73.504;2022-08-19T17:12:30;16.63;;;9.60;;
59486;SDS011;45298;54.918;73.504;2022-08-19T17:15:00;14.80;;;8.57;;
59486;SDS011;45298;54.918;73.504;2022-08-19T17:17:29;49.33;;;26.67;;
59486;SDS011;45298;54.918;73.504;2022-08-19T17:19:59;21.42;;;12.40;;
59486;SDS011;45298;54.918;73.504;2022-08-19T17:22:29;26.92;;;14.65;;
59486;SDS011;45298;54.918;73.504;2022-08-19T17:24:58;15.95;;;8.85;;
59486;SDS011;45298;54.918;73.504;2022-08-19T17:27:27;17.83;;;9.15;;
59486;SDS011;45298;54.918;73.504;2022-08-19T17:30:00;15.18;;;8.27;;
59486;SDS011;45298;54.918;73.504;2022-08-19T17:32:30;55.05;;;28.20;;
59486;SDS011;45298;54.918;73.504;2022-08-19T17:35:01;22.70;;;13.15;;
59486;SDS011;45298;54.918;73.504;2022-08-19T17:37:31;15.13;;;8.32;;
59486;SDS011;45298;54.918;73.504;2022-08-19T17:40:04;24.92;;;15.25;;
59486;SDS011;45298;54.918;73.504;2022-08-19T17:42:35;23.00;;;13.45;;
59486;SDS011;45298;54.918;73.504;2022-08-19T17:45:05;42.00;;;24.58;;
59486;SDS011;45298;54.918;73.504;2022-08-19T17:47:35;20.13;;;11.95;;
59486;SDS011;45298;54.918;73.504;2022-08-19T17:50:04;20.23;;;11.75;;
59486;SDS011;45298;54.918;73.504;2022-08-19T17:52:36;44.63;;;23.52;;
59486;SDS011;45298;54.918;73.504;2022-08-19T17:55:05;26.50;;;14.98;;
59486;SDS011;45298;54.918;73.504;2022-08-19T17:57:37;20.95;;;12.25;;
59486;SDS011;45298;54.918;73.504;2022-08-19T18:00:21;22.48;;;13.65;;
59486;SDS011;45298;54.918;73.504;2022-08-19T18:02:57;19.98;;;12.38;;
59486;SDS011;45298;54.918;73.504;2022-08-19T18:05:31;37.60;;;22.30;;
59486;SDS011;45298;54.918;73.504;2022-08-19T18:08:02;19.73;;;11.13;;
59486;SDS011;45298;54.918;73.504;2022-08-19T18:10:34;20.45;;;11.23;;
59486;SDS011;45298;54.918;73.504;2022-08-19T18:13:04;21.23;;;12.50;;
59486;SDS011;45298;54.918;73.504;2022-08-19T18:15:44;21.38;;;12.60;;
59486;SDS011;45298;54.918;73.504;2022-08-19T18:18:14;48.13;;;27.27;;
59486;SDS011;45298;54.918;73.504;2022-08-19T18:20:43;22.75;;;14.30;;
59486;SDS011;45298;54.918;73.504;2022-08-19T18:23:12;32.65;;;17.95;;
59486;SDS011;45298;54.918;73.504;2022-08-19T18:26:06;24.98;;;15.30;;
59486;SDS011;45298;54.918;73.504;2022-08-19T18:28:34;49.30;;;28.45;;
59486;SDS011;45298;54.918;73.504;2022-08-19T18:31:16;27.15;;;15.30;;